createdAt,value
2019-05-22T00:00:30.800Z,14.69
2019-05-22T00:01:30.804Z,14.65
2019-05-22T00:03:24.214Z,14.69
2019-05-22T00:04:24.221Z,14.58
2019-05-22T00:06:17.627Z,14.61
2019-05-22T00:07:17.655Z,14.65
2019-05-22T00:09:10.554Z,14.73
2019-05-22T00:10:10.559Z,14.69
2019-05-22T00:12:03.973Z,14.68
2019-05-22T00:13:03.984Z,14.65
2019-05-22T00:14:56.901Z,14.61
2019-05-22T00:15:56.907Z,14.57
2019-05-22T00:17:50.313Z,14.62
2019-05-22T00:18:50.320Z,14.61
2019-05-22T00:20:43.813Z,14.55
2019-05-22T00:21:43.737Z,14.55
2019-05-22T00:23:37.145Z,14.62
2019-05-22T00:24:37.152Z,14.52
2019-05-22T00:26:30.557Z,14.46
2019-05-22T00:27:30.566Z,14.58
2019-05-22T00:29:23.974Z,14.64
2019-05-22T00:30:23.980Z,14.60
2019-05-22T00:32:17.389Z,14.64
2019-05-22T00:33:17.395Z,14.65
2019-05-22T00:35:10.312Z,14.73
2019-05-22T00:36:10.318Z,14.65
2019-05-22T00:38:03.257Z,14.75
2019-05-22T00:39:03.239Z,14.70
2019-05-22T00:40:56.157Z,14.55
2019-05-22T00:41:56.158Z,14.52
2019-05-22T00:43:49.089Z,14.43
2019-05-22T00:44:49.087Z,14.40
2019-05-22T00:46:41.991Z,14.45
2019-05-22T00:47:42.001Z,14.42
2019-05-22T00:49:35.408Z,14.47
2019-05-22T00:50:35.415Z,14.43
2019-05-22T00:52:28.322Z,14.43
2019-05-22T00:53:28.334Z,14.42
2019-05-22T00:55:21.251Z,14.55
2019-05-22T00:56:21.256Z,14.61
2019-05-22T00:58:14.179Z,14.69
2019-05-22T00:59:14.180Z,14.62
2019-05-22T01:01:07.092Z,14.58
2019-05-22T01:02:07.102Z,14.55
2019-05-22T01:04:00.503Z,14.62
2019-05-22T01:05:00.520Z,14.61
2019-05-22T01:06:53.428Z,14.55
2019-05-22T01:07:53.435Z,14.68
2019-05-22T01:09:46.354Z,14.70
2019-05-22T01:10:46.361Z,14.69
2019-05-22T01:12:39.769Z,14.75
2019-05-22T01:13:39.774Z,14.80
2019-05-22T01:15:33.191Z,14.75
2019-05-22T01:16:33.199Z,14.68
2019-05-22T01:18:26.107Z,14.47
2019-05-22T01:19:26.119Z,14.37
2019-05-22T01:21:19.034Z,14.43
2019-05-22T01:22:19.043Z,14.29
2019-05-22T01:24:11.957Z,14.28
2019-05-22T01:25:11.978Z,14.24
2019-05-22T01:27:05.437Z,14.29
2019-05-22T01:28:05.380Z,14.22
2019-05-22T01:29:58.778Z,14.15
2019-05-22T01:30:58.792Z,14.18
2019-05-22T01:32:51.706Z,14.15
2019-05-22T01:33:51.716Z,14.03
2019-05-22T01:35:45.120Z,14.15
2019-05-22T01:36:45.129Z,14.06
2019-05-22T01:38:38.034Z,14.17
2019-05-22T01:39:38.048Z,14.06
2019-05-22T01:41:31.456Z,14.10
2019-05-22T01:42:31.462Z,14.15
2019-05-22T01:44:24.871Z,14.22
2019-05-22T01:45:24.877Z,14.21
2019-05-22T01:47:17.796Z,14.21
2019-05-22T01:48:17.800Z,14.18
2019-05-22T01:50:11.215Z,14.14
2019-05-22T01:51:11.226Z,14.09
2019-05-22T01:53:04.636Z,14.00
2019-05-22T01:54:04.643Z,14.04
2019-05-22T01:55:57.673Z,14.15
2019-05-22T01:56:57.679Z,13.99
2019-05-22T01:58:50.586Z,14.14
2019-05-22T01:59:50.597Z,14.09
2019-05-22T02:01:44.018Z,14.12
2019-05-22T02:02:44.014Z,14.20
2019-05-22T02:04:36.925Z,14.22
2019-05-22T02:05:36.936Z,14.18
2019-05-22T02:07:29.854Z,14.18
2019-05-22T02:08:29.861Z,14.28
2019-05-22T02:10:22.771Z,14.22
2019-05-22T02:11:22.783Z,14.22
2019-05-22T02:13:15.696Z,14.28
2019-05-22T02:14:15.701Z,14.24
2019-05-22T02:16:08.618Z,14.24
2019-05-22T02:17:08.623Z,14.27
2019-05-22T02:19:01.532Z,14.28
2019-05-22T02:20:01.583Z,14.21
2019-05-22T02:21:54.951Z,14.21
2019-05-22T02:22:54.957Z,14.02
2019-05-22T02:24:47.862Z,14.02
2019-05-22T02:25:47.873Z,14.04
2019-05-22T02:27:41.281Z,13.91
2019-05-22T02:28:41.286Z,13.97
2019-05-22T02:30:34.195Z,13.97
2019-05-22T02:31:34.209Z,14.00
2019-05-22T02:33:27.622Z,14.02
2019-05-22T02:34:27.627Z,13.91
2019-05-22T02:36:21.029Z,13.88
2019-05-22T02:37:21.037Z,13.89
2019-05-22T02:39:13.963Z,13.91
2019-05-22T02:40:13.956Z,13.95
2019-05-22T02:42:06.867Z,14.02
2019-05-22T02:43:06.890Z,13.95
2019-05-22T02:44:59.782Z,13.97
2019-05-22T02:45:59.795Z,13.97
2019-05-22T02:47:52.710Z,14.03
2019-05-22T02:48:52.712Z,13.96
2019-05-22T02:50:45.623Z,14.14
2019-05-22T02:51:45.631Z,14.00
2019-05-22T02:53:38.544Z,14.12
2019-05-22T02:54:38.549Z,14.07
2019-05-22T02:56:31.954Z,14.03
2019-05-22T02:57:31.963Z,14.04
2019-05-22T02:59:25.373Z,14.03
2019-05-22T03:00:25.378Z,13.92
2019-05-22T03:02:18.295Z,14.02
2019-05-22T03:03:18.292Z,13.95
2019-05-22T03:05:11.713Z,14.03
2019-05-22T03:06:11.723Z,13.87
2019-05-22T03:08:04.632Z,13.89
2019-05-22T03:09:04.642Z,13.97
2019-05-22T03:10:57.552Z,13.91
2019-05-22T03:11:57.558Z,13.87
2019-05-22T03:13:50.474Z,13.99
2019-05-22T03:14:50.484Z,13.96
2019-05-22T03:16:43.393Z,14.03
2019-05-22T03:17:43.399Z,14.03
2019-05-22T03:19:36.311Z,14.02
2019-05-22T03:20:36.393Z,14.06
2019-05-22T03:22:29.237Z,13.92
2019-05-22T03:23:29.243Z,14.02
2019-05-22T03:25:22.651Z,14.09
2019-05-22T03:26:22.669Z,14.06
2019-05-22T03:28:16.578Z,14.04
2019-05-22T03:29:16.584Z,13.87
2019-05-22T03:31:09.489Z,13.96
2019-05-22T03:32:09.528Z,13.87
2019-05-22T03:34:02.413Z,13.87
2019-05-22T03:35:02.437Z,13.85
2019-05-22T03:36:55.832Z,13.92
2019-05-22T03:37:55.844Z,13.82
2019-05-22T03:39:48.756Z,13.88
2019-05-22T03:40:48.759Z,13.91
2019-05-22T03:42:42.173Z,13.85
2019-05-22T03:43:42.180Z,13.95
2019-05-22T03:45:35.087Z,13.91
2019-05-22T03:46:35.097Z,13.79
2019-05-22T03:48:28.591Z,13.78
2019-05-22T03:49:30.827Z,13.79
2019-05-22T03:51:21.931Z,13.81
2019-05-22T03:52:21.945Z,13.73
2019-05-22T03:54:14.859Z,13.75
2019-05-22T03:55:14.861Z,13.78
2019-05-22T03:57:07.782Z,13.75
2019-05-22T03:58:07.785Z,13.81
2019-05-22T04:00:00.706Z,13.66
2019-05-22T04:01:00.710Z,13.79
2019-05-22T04:02:53.620Z,13.71
2019-05-22T04:03:53.631Z,13.75
2019-05-22T04:05:46.546Z,13.71
2019-05-22T04:06:46.551Z,13.77
2019-05-22T04:08:39.473Z,13.75
2019-05-22T04:09:39.473Z,13.71
2019-05-22T04:11:32.873Z,13.73
2019-05-22T04:12:32.885Z,13.79
2019-05-22T04:14:25.809Z,13.79
2019-05-22T04:15:25.804Z,13.78
2019-05-22T04:17:19.211Z,13.78
2019-05-22T04:18:22.743Z,13.75
2019-05-22T04:20:12.632Z,13.81
2019-05-22T04:21:12.632Z,13.79
2019-05-22T04:23:05.539Z,13.71
2019-05-22T04:24:05.553Z,13.62
2019-05-22T04:25:58.472Z,13.63
2019-05-22T04:26:58.474Z,13.60
2019-05-22T04:28:51.391Z,13.57
2019-05-22T04:29:51.394Z,13.60
2019-05-22T04:31:44.321Z,13.64
2019-05-22T04:32:44.330Z,13.73
2019-05-22T04:34:37.740Z,13.75
2019-05-22T04:35:37.748Z,13.64
2019-05-22T04:37:30.655Z,13.71
2019-05-22T04:38:30.667Z,13.79
2019-05-22T04:40:24.076Z,13.67
2019-05-22T04:41:24.078Z,13.78
2019-05-22T04:43:20.307Z,13.64
2019-05-22T04:44:17.503Z,13.71
2019-05-22T04:46:10.411Z,13.63
2019-05-22T04:47:10.420Z,13.64
2019-05-22T04:49:03.325Z,13.63
2019-05-22T04:50:07.566Z,13.62
2019-05-22T04:51:56.236Z,13.60
2019-05-22T04:52:56.248Z,13.51
2019-05-22T04:54:52.441Z,13.62
2019-05-22T04:55:49.169Z,13.42
2019-05-22T04:57:42.574Z,13.41
2019-05-22T04:58:42.585Z,13.45
2019-05-22T05:00:35.501Z,13.33
2019-05-22T05:01:35.504Z,13.42
2019-05-22T05:03:28.905Z,13.42
2019-05-22T05:04:28.915Z,13.42
2019-05-22T05:06:21.836Z,13.48
2019-05-22T05:07:21.834Z,13.52
2019-05-22T05:09:14.748Z,13.66
2019-05-22T05:10:14.752Z,13.55
2019-05-22T05:12:08.168Z,13.51
2019-05-22T05:13:08.181Z,13.52
2019-05-22T05:15:01.587Z,13.55
2019-05-22T05:16:01.596Z,13.51
2019-05-22T05:17:54.510Z,13.54
2019-05-22T05:18:54.556Z,13.51
2019-05-22T05:20:47.427Z,13.42
2019-05-22T05:21:47.433Z,13.48
2019-05-22T05:23:40.836Z,13.28
2019-05-22T05:24:40.848Z,13.38
2019-05-22T05:26:33.771Z,13.32
2019-05-22T05:27:33.769Z,13.33
2019-05-22T05:29:27.180Z,13.22
2019-05-22T05:30:27.184Z,13.25
2019-05-22T05:32:20.589Z,13.32
2019-05-22T05:33:20.599Z,13.23
2019-05-22T05:35:14.010Z,13.38
2019-05-22T05:36:14.014Z,13.29
2019-05-22T05:38:06.931Z,13.26
2019-05-22T05:39:06.938Z,13.20
2019-05-22T05:40:59.851Z,13.03
2019-05-22T05:41:59.858Z,13.04
2019-05-22T05:43:54.267Z,13.01
2019-05-22T05:44:54.272Z,13.04
2019-05-22T05:46:47.190Z,12.92
2019-05-22T05:47:47.196Z,12.97
2019-05-22T05:49:40.602Z,12.92
2019-05-22T05:50:40.727Z,12.93
2019-05-22T05:52:34.022Z,13.07
2019-05-22T05:53:34.024Z,12.93
2019-05-22T05:55:26.936Z,13.10
2019-05-22T05:56:26.941Z,13.04
2019-05-22T05:58:19.859Z,13.05
2019-05-22T05:59:19.867Z,13.03
2019-05-22T06:01:12.811Z,13.05
2019-05-22T06:02:12.841Z,12.95
2019-05-22T06:04:06.305Z,12.89
2019-05-22T06:05:06.217Z,12.87
2019-05-22T06:07:00.843Z,13.03
2019-05-22T06:07:59.138Z,13.04
2019-05-22T06:09:52.543Z,13.04
2019-05-22T06:10:52.552Z,13.01
2019-05-22T06:12:45.472Z,13.01
2019-05-22T06:13:45.477Z,13.05
2019-05-22T06:15:47.147Z,13.04
2019-05-22T06:16:38.394Z,13.12
2019-05-22T06:18:31.307Z,13.22
2019-05-22T06:19:31.318Z,13.20
2019-05-22T06:21:24.226Z,13.30
2019-05-22T06:22:24.231Z,13.32
2019-05-22T06:24:17.637Z,13.36
2019-05-22T06:25:17.649Z,13.38
2019-05-22T06:27:10.568Z,13.39
2019-05-22T06:28:10.571Z,13.29
2019-05-22T06:30:03.482Z,13.30
2019-05-22T06:31:03.492Z,13.48
2019-05-22T06:32:56.411Z,13.46
2019-05-22T06:33:56.413Z,13.48
2019-05-22T06:35:49.334Z,13.51
2019-05-22T06:36:49.337Z,13.52
2019-05-22T06:38:42.246Z,13.36
2019-05-22T06:39:42.259Z,13.45
2019-05-22T06:41:35.192Z,13.33
2019-05-22T06:42:35.178Z,13.28
2019-05-22T06:44:28.090Z,13.36
2019-05-22T06:45:28.100Z,13.25
2019-05-22T06:47:21.511Z,13.30
2019-05-22T06:48:21.516Z,13.42
2019-05-22T06:50:14.433Z,13.25
2019-05-22T06:51:19.556Z,13.22
2019-05-22T06:53:10.154Z,13.41
2019-05-22T06:54:07.854Z,13.46
2019-05-22T06:56:00.768Z,13.49
2019-05-22T06:57:00.773Z,13.42
2019-05-22T06:58:53.691Z,13.38
2019-05-22T07:00:11.675Z,13.22
2019-05-22T07:01:47.104Z,13.29
2019-05-22T07:02:47.109Z,13.29
2019-05-22T07:04:40.020Z,13.44
2019-05-22T07:05:40.030Z,13.41
2019-05-22T07:07:32.954Z,13.45
2019-05-22T07:08:32.958Z,13.48
2019-05-22T07:10:25.864Z,13.57
2019-05-22T07:11:25.872Z,13.49
2019-05-22T07:13:18.805Z,13.54
2019-05-22T07:14:18.792Z,13.51
2019-05-22T07:16:11.708Z,13.39
2019-05-22T07:17:11.713Z,13.54
2019-05-22T07:19:05.121Z,13.64
2019-05-22T07:20:05.208Z,13.71
2019-05-22T07:21:58.049Z,13.55
2019-05-22T07:22:58.070Z,13.75
2019-05-22T07:24:50.997Z,13.79
2019-05-22T07:25:51.023Z,13.77
2019-05-22T07:27:43.897Z,13.78
2019-05-22T07:28:43.912Z,13.71
2019-05-22T07:30:36.810Z,13.77
2019-05-22T07:31:36.834Z,13.67
2019-05-22T07:33:30.233Z,13.73
2019-05-22T07:34:30.239Z,13.75
2019-05-22T07:36:23.178Z,13.82
2019-05-22T07:37:23.395Z,13.70
2019-05-22T07:39:16.074Z,13.85
2019-05-22T07:40:16.090Z,13.95
2019-05-22T07:42:08.999Z,14.02
2019-05-22T07:43:09.006Z,14.06
2019-05-22T07:45:01.932Z,14.02
2019-05-22T07:46:01.957Z,13.99
2019-05-22T07:47:54.920Z,14.17
2019-05-22T07:48:54.852Z,14.15
2019-05-22T07:50:49.128Z,14.20
2019-05-22T07:51:54.114Z,14.21
2019-05-22T07:53:41.227Z,14.25
2019-05-22T07:54:41.237Z,14.20
2019-05-22T07:56:34.147Z,14.03
2019-05-22T07:57:34.156Z,13.91
2019-05-22T07:59:27.074Z,13.75
2019-05-22T08:00:27.078Z,13.73
2019-05-22T08:02:19.990Z,13.79
2019-05-22T08:03:19.996Z,13.87
2019-05-22T08:05:12.910Z,13.84
2019-05-22T08:06:12.920Z,13.88
2019-05-22T08:08:05.838Z,13.71
2019-05-22T08:09:05.842Z,13.62
2019-05-22T08:10:58.760Z,13.45
2019-05-22T08:11:58.764Z,13.41
2019-05-22T08:13:51.688Z,13.30
2019-05-22T08:14:51.694Z,13.41
2019-05-22T08:16:44.597Z,13.33
2019-05-22T08:17:44.604Z,13.28
2019-05-22T08:19:37.530Z,13.36
2019-05-22T08:20:37.527Z,13.32
2019-05-22T08:22:30.442Z,13.38
2019-05-22T08:23:30.453Z,13.48
2019-05-22T08:25:23.471Z,13.52
2019-05-22T08:26:23.456Z,13.59
2019-05-22T08:28:16.370Z,13.77
2019-05-22T08:29:16.382Z,13.88
2019-05-22T08:31:09.293Z,14.07
2019-05-22T08:32:09.306Z,14.21
2019-05-22T08:34:02.718Z,14.40
2019-05-22T08:35:02.739Z,14.43
2019-05-22T08:36:55.638Z,14.51
2019-05-22T08:37:55.654Z,14.55
2019-05-22T08:39:48.569Z,14.70
2019-05-22T08:40:48.577Z,14.83
2019-05-22T08:42:41.497Z,14.75
2019-05-22T08:44:11.528Z,14.95
2019-05-22T08:45:34.423Z,14.98
2019-05-22T08:46:34.433Z,15.20
2019-05-22T08:48:27.349Z,15.19
2019-05-22T08:49:27.357Z,15.31
2019-05-22T08:51:20.274Z,15.36
2019-05-22T08:52:23.819Z,15.43
2019-05-22T08:54:13.208Z,15.46
2019-05-22T08:55:13.214Z,15.59
2019-05-22T08:57:06.233Z,15.46
2019-05-22T08:58:06.179Z,15.50
2019-05-22T08:59:59.062Z,15.39
2019-05-22T09:00:59.070Z,15.46
2019-05-22T09:02:51.984Z,15.50
2019-05-22T09:03:52.011Z,15.47
2019-05-22T09:05:44.923Z,15.34
2019-05-22T09:06:44.925Z,15.44
2019-05-22T09:08:38.843Z,15.36
2019-05-22T09:09:38.849Z,15.43
2019-05-22T09:11:31.761Z,15.43
2019-05-22T09:12:31.772Z,15.47
2019-05-22T09:14:25.194Z,15.60
2019-05-22T09:15:25.196Z,15.54
2019-05-22T09:17:18.112Z,15.43
2019-05-22T09:18:18.120Z,15.43
2019-05-22T09:20:11.067Z,15.54
2019-05-22T09:21:11.065Z,15.60
2019-05-22T09:23:03.963Z,15.65
2019-05-22T09:24:03.978Z,15.57
2019-05-22T09:25:56.894Z,15.74
2019-05-22T09:26:56.901Z,15.57
2019-05-22T09:28:49.819Z,15.78
2019-05-22T09:29:49.831Z,15.74
2019-05-22T09:31:42.749Z,15.96
2019-05-22T09:32:42.758Z,16.12
2019-05-22T09:34:35.679Z,16.11
2019-05-22T09:35:35.689Z,16.12
2019-05-22T09:37:29.102Z,16.09
2019-05-22T09:38:29.109Z,15.86
2019-05-22T09:40:22.042Z,15.75
2019-05-22T09:41:22.045Z,15.80
2019-05-22T09:43:14.960Z,15.54
2019-05-22T09:44:15.473Z,15.71
2019-05-22T09:46:07.892Z,15.67
2019-05-22T09:47:07.900Z,15.50
2019-05-22T09:49:01.347Z,15.60
2019-05-22T09:50:01.391Z,15.65
2019-05-22T09:51:54.280Z,15.67
2019-05-22T09:52:57.984Z,15.74
2019-05-22T09:54:47.209Z,15.62
2019-05-22T09:55:47.744Z,15.56
2019-05-22T09:57:40.177Z,15.62
2019-05-22T09:58:40.151Z,15.59
2019-05-22T10:00:33.069Z,15.82
2019-05-22T10:01:33.074Z,15.74
2019-05-22T10:03:25.986Z,15.90
2019-05-22T10:04:26.002Z,15.97
2019-05-22T10:06:21.593Z,15.96
2019-05-22T10:07:18.930Z,15.96
2019-05-22T10:09:11.846Z,15.96
2019-05-22T10:10:11.858Z,15.90
2019-05-22T10:12:05.273Z,16.01
2019-05-22T10:13:05.286Z,16.14
2019-05-22T10:14:58.437Z,16.41
2019-05-22T10:15:58.215Z,16.48
2019-05-22T10:17:51.129Z,16.21
2019-05-22T10:18:53.472Z,16.21
2019-05-22T10:20:44.068Z,16.30
2019-05-22T10:21:44.072Z,16.43
2019-05-22T10:23:36.986Z,16.81
2019-05-22T10:24:37.006Z,16.88
2019-05-22T10:26:30.459Z,17.06
2019-05-22T10:27:30.467Z,16.91
2019-05-22T10:29:23.381Z,16.93
2019-05-22T10:30:23.402Z,16.97
2019-05-22T10:32:16.809Z,17.18
2019-05-22T10:33:16.822Z,17.08
2019-05-22T10:35:09.742Z,17.16
2019-05-22T10:36:09.755Z,17.25
2019-05-22T10:38:03.161Z,17.23
2019-05-22T10:39:03.213Z,17.25
2019-05-22T10:40:59.025Z,17.43
2019-05-22T10:41:56.107Z,17.28
2019-05-22T10:43:49.523Z,17.44
2019-05-22T10:44:49.535Z,17.41
2019-05-22T10:46:42.454Z,17.08
2019-05-22T10:47:42.466Z,17.12
2019-05-22T10:49:35.387Z,16.94
2019-05-22T10:50:35.401Z,16.97
2019-05-22T10:52:28.318Z,16.97
2019-05-22T10:53:33.802Z,17.12
2019-05-22T10:55:21.744Z,17.23
2019-05-22T10:56:21.758Z,17.34
2019-05-22T10:58:14.686Z,17.44
2019-05-22T10:59:14.686Z,17.66
2019-05-22T11:01:08.102Z,17.68
2019-05-22T11:02:08.205Z,17.74
2019-05-22T11:04:01.029Z,17.59
2019-05-22T11:05:01.043Z,17.82
2019-05-22T11:06:54.474Z,17.72
2019-05-22T11:07:54.485Z,17.95
2019-05-22T11:09:47.889Z,17.90
2019-05-22T11:10:47.929Z,18.02
2019-05-22T11:12:40.834Z,18.05
2019-05-22T11:13:40.840Z,17.95
2019-05-22T11:15:33.761Z,17.92
2019-05-22T11:16:33.806Z,17.82
2019-05-22T11:18:26.692Z,17.92
2019-05-22T11:19:26.704Z,17.93
2019-05-22T11:21:20.128Z,17.96
2019-05-22T11:22:20.135Z,17.95
2019-05-22T11:24:13.543Z,17.81
2019-05-22T11:25:13.563Z,17.78
2019-05-22T11:27:06.496Z,17.99
2019-05-22T11:28:06.509Z,18.05
2019-05-22T11:29:59.914Z,18.03
2019-05-22T11:30:59.929Z,18.10
2019-05-22T11:32:52.858Z,17.82
2019-05-22T11:33:52.863Z,17.86
2019-05-22T11:35:46.278Z,17.75
2019-05-22T11:36:46.295Z,17.63
2019-05-22T11:38:39.704Z,17.72
2019-05-22T11:39:42.593Z,17.66
2019-05-22T11:41:33.137Z,17.86
2019-05-22T11:42:33.147Z,17.79
2019-05-22T11:44:26.069Z,18.00
2019-05-22T11:45:26.071Z,18.15
2019-05-22T11:47:19.490Z,18.27
2019-05-22T11:48:19.498Z,18.37
2019-05-22T11:50:12.911Z,18.27
2019-05-22T11:51:12.933Z,18.15
2019-05-22T11:53:05.852Z,18.15
2019-05-22T11:54:09.293Z,18.20
2019-05-22T11:55:58.788Z,18.17
2019-05-22T11:56:58.786Z,18.10
2019-05-22T11:58:51.706Z,18.15
2019-05-22T11:59:51.717Z,18.10
2019-05-22T12:01:45.174Z,18.18
2019-05-22T12:02:45.193Z,18.29
2019-05-22T12:04:47.838Z,18.54
2019-05-22T12:05:38.113Z,18.65
2019-05-22T12:07:31.529Z,18.69
2019-05-22T12:08:31.539Z,18.76
2019-05-22T12:10:24.453Z,18.84
2019-05-22T12:11:24.471Z,18.70
2019-05-22T12:13:17.905Z,18.67
2019-05-22T12:14:17.929Z,18.75
2019-05-22T12:16:10.831Z,18.87
2019-05-22T12:17:10.841Z,18.82
2019-05-22T12:19:04.258Z,19.00
2019-05-22T12:20:04.274Z,19.04
2019-05-22T12:21:57.199Z,19.29
2019-05-22T12:22:57.219Z,19.26
2019-05-22T12:24:50.620Z,19.26
2019-05-22T12:25:50.637Z,19.32
2019-05-22T12:27:44.056Z,19.31
2019-05-22T12:28:44.066Z,19.32
2019-05-22T12:30:36.991Z,19.36
2019-05-22T12:31:36.996Z,19.31
2019-05-22T12:33:30.414Z,19.43
2019-05-22T12:34:30.425Z,19.32
2019-05-22T12:36:23.347Z,19.36
2019-05-22T12:37:23.357Z,19.68
2019-05-22T12:39:16.769Z,19.76
2019-05-22T12:40:16.784Z,19.86
2019-05-22T12:42:11.209Z,19.87
2019-05-22T12:43:11.214Z,19.87
2019-05-22T12:45:04.633Z,19.80
2019-05-22T12:46:04.646Z,19.73
2019-05-22T12:47:57.567Z,19.69
2019-05-22T12:48:57.575Z,19.76
2019-05-22T12:50:50.494Z,19.95
2019-05-22T12:51:50.510Z,19.88
2019-05-22T12:53:43.432Z,19.88
2019-05-22T12:54:48.450Z,19.92
2019-05-22T12:56:36.367Z,19.71
2019-05-22T12:57:36.378Z,19.71
2019-05-22T12:59:29.291Z,19.65
2019-05-22T13:00:29.311Z,19.62
2019-05-22T13:02:22.724Z,19.58
2019-05-22T13:03:22.737Z,19.50
2019-05-22T13:05:16.147Z,19.63
2019-05-22T13:06:16.173Z,19.61
2019-05-22T13:08:09.103Z,19.47
2019-05-22T13:09:09.103Z,19.68
2019-05-22T13:11:05.302Z,19.95
2019-05-22T13:12:02.039Z,19.98
2019-05-22T13:13:55.455Z,20.23
2019-05-22T13:15:08.856Z,20.26
2019-05-22T13:16:49.324Z,20.42
2019-05-22T13:17:48.400Z,20.47
2019-05-22T13:19:41.325Z,20.59
2019-05-22T13:20:43.983Z,20.62
2019-05-22T13:22:34.262Z,20.67
2019-05-22T13:23:34.271Z,20.51
2019-05-22T13:25:27.683Z,20.54
2019-05-22T13:26:27.702Z,20.55
2019-05-22T13:28:21.127Z,20.61
2019-05-22T13:29:21.132Z,20.57
2019-05-22T13:31:14.547Z,20.59
2019-05-22T13:32:14.569Z,20.79
2019-05-22T13:34:07.983Z,20.82
2019-05-22T13:35:07.998Z,20.89
2019-05-22T13:37:01.146Z,20.84
2019-05-22T13:38:00.963Z,20.73
2019-05-22T13:39:53.872Z,20.70
2019-05-22T13:40:53.883Z,20.80
2019-05-22T13:42:46.807Z,20.89
2019-05-22T13:43:46.821Z,21.03
2019-05-22T13:45:39.739Z,21.01
2019-05-22T13:46:39.757Z,21.03
2019-05-22T13:48:33.172Z,20.88
2019-05-22T13:49:33.183Z,20.87
2019-05-22T13:51:26.616Z,20.54
2019-05-22T13:52:26.631Z,20.61
2019-05-22T13:54:20.051Z,20.67
2019-05-22T13:55:20.070Z,20.73
2019-05-22T13:57:13.482Z,20.72
2019-05-22T13:58:13.495Z,20.72
2019-05-22T14:00:09.390Z,20.82
2019-05-22T14:01:06.430Z,20.80
2019-05-22T14:02:59.851Z,21.04
2019-05-22T14:03:59.863Z,21.21
2019-05-22T14:05:53.293Z,21.42
2019-05-22T14:06:53.294Z,21.53
2019-05-22T14:08:46.714Z,21.79
2019-05-22T14:09:46.725Z,21.64
2019-05-22T14:11:40.138Z,21.68
2019-05-22T14:12:40.154Z,21.75
2019-05-22T14:14:33.082Z,21.84
2019-05-22T14:15:48.949Z,21.84
2019-05-22T14:17:26.124Z,21.77
2019-05-22T14:18:26.144Z,21.79
2019-05-22T14:20:19.045Z,21.68
2019-05-22T14:21:19.061Z,21.72
2019-05-22T14:23:12.481Z,21.64
2019-05-22T14:24:12.508Z,21.43
2019-05-22T14:26:05.913Z,21.56
2019-05-22T14:27:05.927Z,21.50
2019-05-22T14:28:59.377Z,21.16
2019-05-22T14:29:59.356Z,20.88
2019-05-22T14:31:52.284Z,20.70
2019-05-22T14:32:52.295Z,20.76
2019-05-22T14:34:45.715Z,20.70
2019-05-22T14:35:48.889Z,20.80
2019-05-22T14:37:39.151Z,21.06
2019-05-22T14:38:39.155Z,21.25
2019-05-22T14:40:33.071Z,21.49
2019-05-22T14:41:33.086Z,21.68
2019-05-22T14:43:26.013Z,21.98
2019-05-22T14:44:26.029Z,22.00
2019-05-22T14:46:18.945Z,22.18
2019-05-22T14:47:18.957Z,22.22
2019-05-22T14:49:11.908Z,22.27
2019-05-22T14:50:11.921Z,22.33
2019-05-22T14:52:04.849Z,22.45
2019-05-22T14:53:04.864Z,22.45
2019-05-22T14:54:57.788Z,22.33
2019-05-22T14:55:57.799Z,22.27
2019-05-22T14:57:50.736Z,22.31
2019-05-22T14:58:50.736Z,22.22
2019-05-22T15:00:43.664Z,22.21
2019-05-22T15:01:43.681Z,22.24
2019-05-22T15:03:37.089Z,22.20
2019-05-22T15:04:37.110Z,22.00
2019-05-22T15:06:30.028Z,22.20
2019-05-22T15:07:30.044Z,22.24
2019-05-22T15:09:22.975Z,22.06
2019-05-22T15:10:22.987Z,22.02
2019-05-22T15:12:16.409Z,22.03
2019-05-22T15:13:16.431Z,21.98
2019-05-22T15:15:09.377Z,21.99
2019-05-22T15:16:09.436Z,21.94
2019-05-22T15:18:02.794Z,21.80
2019-05-22T15:19:02.792Z,21.79
2019-05-22T15:20:56.208Z,21.68
2019-05-22T15:21:56.226Z,21.71
2019-05-22T15:23:49.156Z,21.62
2019-05-22T15:24:49.159Z,21.69
2019-05-22T15:26:42.573Z,21.79
2019-05-22T15:27:42.590Z,21.69
2019-05-22T15:29:35.513Z,21.67
2019-05-22T15:30:35.534Z,21.61
2019-05-22T15:32:29.011Z,21.61
2019-05-22T15:33:28.969Z,21.50
2019-05-22T15:35:22.414Z,21.37
2019-05-22T15:36:22.398Z,21.40
2019-05-22T15:38:15.824Z,21.46
2019-05-22T15:39:15.825Z,21.35
2019-05-22T15:41:08.750Z,21.24
2019-05-22T15:42:08.775Z,21.29
2019-05-22T15:44:01.709Z,21.29
2019-05-22T15:45:01.704Z,21.34
2019-05-22T15:46:54.624Z,21.16
2019-05-22T15:47:57.072Z,21.17
2019-05-22T15:49:48.061Z,21.13
2019-05-22T15:50:48.069Z,21.17
2019-05-22T15:52:41.011Z,21.22
2019-05-22T15:53:41.010Z,21.16
2019-05-22T15:55:34.104Z,21.09
2019-05-22T15:56:34.055Z,21.09
2019-05-22T15:58:26.867Z,21.14
2019-05-22T15:59:26.881Z,20.97
2019-05-22T16:01:19.803Z,20.99
2019-05-22T16:02:21.884Z,21.04
2019-05-22T16:04:12.743Z,21.19
2019-05-22T16:05:12.759Z,21.19
2019-05-22T16:07:05.685Z,21.25
2019-05-22T16:08:05.688Z,21.25
2019-05-22T16:09:59.108Z,21.32
2019-05-22T16:11:00.294Z,21.34
2019-05-22T16:12:52.050Z,21.28
2019-05-22T16:13:52.056Z,21.28
2019-05-22T16:15:45.040Z,21.35
2019-05-22T16:16:45.040Z,21.32
2019-05-22T16:18:37.942Z,21.25
2019-05-22T16:19:37.957Z,21.28
2019-05-22T16:21:30.885Z,21.19
2019-05-22T16:22:30.904Z,21.25
2019-05-22T16:24:23.822Z,21.16
2019-05-22T16:25:23.832Z,21.19
2019-05-22T16:27:16.759Z,21.31
2019-05-22T16:28:16.768Z,21.32
2019-05-22T16:30:09.692Z,21.46
2019-05-22T16:31:09.704Z,21.58
2019-05-22T16:33:02.687Z,21.61
2019-05-22T16:34:02.670Z,21.65
2019-05-22T16:35:55.573Z,21.67
2019-05-22T16:36:55.587Z,21.54
2019-05-22T16:38:48.508Z,21.40
2019-05-22T16:39:50.500Z,21.34
2019-05-22T16:41:41.467Z,21.38
2019-05-22T16:42:41.465Z,21.42
2019-05-22T16:44:34.392Z,21.38
2019-05-22T16:45:34.402Z,21.37
2019-05-22T16:47:27.323Z,21.43
2019-05-22T16:48:29.347Z,21.42
2019-05-22T16:50:20.262Z,21.56
2019-05-22T16:51:20.305Z,21.58
2019-05-22T16:53:13.196Z,21.58
2019-05-22T16:54:13.229Z,21.59
2019-05-22T16:56:06.637Z,21.67
2019-05-22T16:57:06.646Z,21.64
2019-05-22T16:58:59.565Z,21.65
2019-05-22T16:59:59.581Z,21.56
2019-05-22T17:01:59.684Z,21.56
2019-05-22T17:02:52.519Z,21.49
2019-05-22T17:04:45.441Z,21.44
2019-05-22T17:05:45.452Z,21.46
2019-05-22T17:07:38.382Z,21.44
2019-05-22T17:08:38.423Z,21.53
2019-05-22T17:10:31.328Z,21.54
2019-05-22T17:11:31.334Z,21.61
2019-05-22T17:13:24.266Z,21.54
2019-05-22T17:14:24.271Z,21.53
2019-05-22T17:16:17.203Z,21.43
2019-05-22T17:17:17.203Z,21.44
2019-05-22T17:19:25.710Z,21.44
2019-05-22T17:20:10.139Z,21.50
2019-05-22T17:22:03.069Z,21.59
2019-05-22T17:23:03.083Z,21.54
2019-05-22T17:24:56.500Z,21.58
2019-05-22T17:25:56.513Z,21.61
2019-05-22T17:27:49.441Z,21.49
2019-05-22T17:28:49.456Z,21.44
2019-05-22T17:30:42.377Z,21.58
2019-05-22T17:31:42.384Z,21.47
2019-05-22T17:33:35.414Z,21.47
2019-05-22T17:34:35.322Z,21.35
2019-05-22T17:36:28.750Z,21.29
2019-05-22T17:37:28.761Z,21.25
2019-05-22T17:39:21.684Z,21.27
2019-05-22T17:40:21.699Z,21.34
2019-05-22T17:42:15.135Z,21.31
2019-05-22T17:43:15.137Z,21.37
2019-05-22T17:45:08.065Z,21.35
2019-05-22T17:46:08.076Z,21.32
2019-05-22T17:48:01.001Z,21.31
2019-05-22T17:49:01.005Z,21.28
2019-05-22T17:50:53.931Z,21.24
2019-05-22T17:51:53.942Z,21.27
2019-05-22T17:53:47.360Z,21.46
2019-05-22T17:54:47.376Z,21.38
2019-05-22T17:56:40.298Z,21.27
2019-05-22T17:57:40.318Z,21.29
2019-05-22T17:59:33.241Z,21.50
2019-05-22T18:00:33.300Z,21.46
2019-05-22T18:02:26.267Z,21.58
2019-05-22T18:03:26.187Z,21.67
2019-05-22T18:05:19.106Z,21.65
2019-05-22T18:06:19.145Z,21.59
2019-05-22T18:08:12.640Z,21.25
2019-05-22T18:09:12.576Z,21.17
2019-05-22T18:11:06.248Z,21.27
2019-05-22T18:12:06.400Z,21.38
2019-05-22T18:13:59.035Z,21.69
2019-05-22T18:14:59.191Z,21.79
2019-05-22T18:16:51.999Z,21.88
2019-05-22T18:17:52.016Z,21.88
2019-05-22T18:19:44.927Z,21.82
2019-05-22T18:20:44.977Z,21.83
2019-05-22T18:22:38.364Z,22.03
2019-05-22T18:23:38.376Z,21.98
2019-05-22T18:25:31.294Z,21.96
2019-05-22T18:26:31.321Z,22.00
2019-05-22T18:28:24.758Z,21.83
2019-05-22T18:29:24.751Z,21.62
2019-05-22T18:31:17.697Z,21.25
2019-05-22T18:32:17.702Z,21.17
2019-05-22T18:34:10.632Z,20.95